Time;durP1;ratioP1;P1;durP2;ratioP2;P2;SDS_P1;SDS_P2;PMS_P1;PMS_P2;Temp;Humidity;BMP_temperature;BMP_pressure;BME280_temperature;BME280_humidity;BME280_pressure;Samples;Min_cycle;Max_cycle;Signal;HPM_P1;HPM_P2
2022/01/25 00:09:32;;;;;;;42.25;21.75;;;;;;;2.90;93.48;103368.69;5092188;28;20120;-69
2022/01/25 00:28:24;;;;;;;39.80;20.73;;;;;;;2.91;94.24;103369.53;5090478;28;20097;-68
2022/01/25 00:31:04;;;;;;;44.70;23.60;;;;;;;2.92;94.34;103376.50;5091765;28;20032;-68
2022/01/25 00:33:33;;;;;;;43.67;22.75;;;;;;;2.86;94.58;103372.44;5091869;28;20050;-68
2022/01/25 00:36:00;;;;;;;46.30;24.65;;;;;;;2.90;93.81;103373.09;5091674;28;20062;-68
2022/01/25 00:38:26;;;;;;;41.30;20.75;;;;;;;2.89;94.12;103374.91;5091776;28;20073;-68
2022/01/25 00:40:51;;;;;;;44.42;23.17;;;;;;;2.89;93.81;103374.06;5091669;28;20032;-68
2022/01/25 00:43:17;;;;;;;49.60;26.80;;;;;;;2.89;93.57;103371.41;5091687;28;20081;-68
2022/01/25 00:45:42;;;;;;;42.28;21.45;;;;;;;2.88;93.85;103375.81;5091565;28;20150;-68
2022/01/25 00:48:17;;;;;;;43.03;22.52;;;;;;;2.85;94.47;103368.06;5091425;28;20077;-68
2022/01/25 00:50:43;;;;;;;46.60;21.38;;;;;;;2.91;94.62;103367.75;5091324;28;20035;-68
2022/01/25 00:55:34;;;;;;;41.97;22.50;;;;;;;2.90;93.84;103367.84;5091340;28;20103;-68
2022/01/25 00:58:01;;;;;;;42.55;21.88;;;;;;;2.87;94.19;103368.00;5091526;28;20063;-68
2022/01/25 01:00:27;;;;;;;38.30;21.42;;;;;;;2.87;94.42;103358.31;5091395;28;20488;-68
2022/01/25 01:02:54;;;;;;;47.83;22.92;;;;;;;2.86;94.48;103361.88;5091212;28;20471;-68
2022/01/25 01:05:20;;;;;;;47.90;24.30;;;;;;;2.86;94.64;103361.88;5091142;28;20032;-68
2022/01/25 01:07:46;;;;;;;44.47;21.48;;;;;;;2.80;94.52;103354.28;5089861;28;20031;-68
2022/01/25 01:10:16;;;;;;;47.38;20.65;;;;;;;2.84;94.14;103364.59;5090952;28;20537;-68
2022/01/25 01:15:41;;;;;;;43.20;22.05;;;;;;;2.85;94.14;103360.16;5090868;28;21327;-68
2022/01/25 01:32:14;;;;;;;42.92;20.10;;;;;;;2.88;94.62;103365.25;5071446;28;20135;-68
2022/01/25 01:37:30;;;;;;;41.10;19.42;;;;;;;2.89;94.04;103363.50;5090692;28;20050;-68
2022/01/25 01:40:11;;;;;;;41.90;20.95;;;;;;;2.87;93.76;103363.56;5090001;28;20072;-68
2022/01/25 01:48:04;;;;;;;39.00;18.90;;;;;;;2.89;94.55;103367.00;5090611;28;20086;-68
2022/01/25 01:50:28;;;;;;;;;;;;;;;2.92;94.17;103373.88;5087964;28;20044;-68
2022/01/25 01:52:55;;;;;;;44.63;23.10;;;;;;;2.91;94.34;103378.31;5090285;28;19916;-68
2022/01/25 01:55:21;;;;;;;40.95;21.63;;;;;;;2.91;94.54;103382.69;5090216;28;20127;-68
2022/01/25 01:57:49;;;;;;;40.08;19.40;;;;;;;2.89;94.57;103368.78;5090072;28;20033;-68
2022/01/25 02:00:16;;;;;;;38.38;21.27;;;;;;;2.85;94.75;103365.44;5090061;28;20024;-68
2022/01/25 02:02:42;;;;;;;46.60;23.70;;;;;;;2.87;94.48;103370.63;5090025;28;20024;-69
2022/01/25 02:05:08;;;;;;;45.70;21.95;;;;;;;2.82;94.33;103369.09;5090078;28;20024;-68
2022/01/25 02:07:34;;;;;;;42.40;22.05;;;;;;;2.86;94.30;103367.16;5089988;28;20062;-68
2022/01/25 02:09:59;;;;;;;45.00;23.67;;;;;;;2.86;94.34;103375.06;5089848;28;20115;-68
2022/01/25 02:24:48;;;;;;;38.30;21.58;;;;;;;2.84;95.43;103356.69;5902166;23;20036;-69
2022/01/25 02:27:14;;;;;;;43.60;25.17;;;;;;;2.84;95.50;103353.22;4977604;23;20051;-68
2022/01/25 02:29:40;;;;;;;41.53;20.92;;;;;;;2.83;95.46;103348.88;4970425;28;20066;-68
2022/01/25 02:32:07;;;;;;;43.08;22.27;;;;;;;2.83;95.42;103340.97;4970828;28;20062;-68
2022/01/25 02:34:32;;;;;;;43.63;21.83;;;;;;;2.78;95.16;103343.00;4970733;28;20030;-68
2022/01/25 02:37:05;;;;;;;46.78;23.35;;;;;;;2.83;95.25;103343.63;4970782;28;20026;-68
2022/01/25 02:39:31;;;;;;;46.67;23.60;;;;;;;2.81;95.75;103340.22;4970705;28;20059;-68
2022/01/25 02:41:56;;;;;;;45.92;23.73;;;;;;;2.81;95.38;103343.69;4970636;28;20023;-68
2022/01/25 02:44:27;;;;;;;48.53;24.02;;;;;;;2.80;95.10;103342.00;4970716;28;20034;-68
2022/01/25 02:49:34;;;;;;;42.78;20.90;;;;;;;2.80;95.57;103343.75;4970588;28;20096;-68
2022/01/25 02:52:02;;;;;;;44.33;24.02;;;;;;;2.81;95.87;103348.97;4969766;28;20026;-68
2022/01/25 02:54:27;;;;;;;41.22;21.00;;;;;;;2.81;95.59;103341.06;4970483;28;20133;-68
2022/01/25 02:56:53;;;;;;;41.40;19.52;;;;;;;2.79;95.56;103345.53;4970623;28;20481;-68
2022/01/25 02:59:19;;;;;;;45.72;22.20;;;;;;;2.78;95.88;103341.22;4970470;28;20041;-68
2022/01/25 03:01:47;;;;;;;40.88;21.88;;;;;;;2.78;95.31;103343.00;4970491;28;20511;-68
2022/01/25 03:04:14;;;;;;;45.58;20.90;;;;;;;2.78;95.26;103343.00;4970420;28;20045;-68
2022/01/25 03:06:42;;;;;;;44.03;22.52;;;;;;;2.73;95.21;103339.78;4970331;28;20030;-68
2022/01/25 03:09:08;;;;;;;49.72;23.10;;;;;;;2.73;94.90;103342.41;4970386;28;20030;-68
2022/01/25 03:11:34;;;;;;;49.13;24.45;;;;;;;2.66;94.68;103328.72;4970280;28;20026;-68
2022/01/25 03:14:03;;;;;;;42.55;20.67;;;;;;;2.68;94.86;103336.53;4970307;28;20145;-68
2022/01/25 03:16:40;;;;;;;46.75;24.02;;;;;;;2.73;94.76;103334.50;4943567;28;20388;-68
2022/01/25 03:21:58;;;;;;;48.38;20.60;;;;;;;2.76;95.25;103314.09;4955090;28;20034;-68
2022/01/25 03:24:23;;;;;;;;;;;;;;;2.79;95.19;103308.66;4953568;28;20023;-68
2022/01/25 03:26:49;;;;;;;53.75;26.23;;;;;;;2.78;95.16;103304.34;4969914;28;20418;-68
2022/01/25 03:29:14;;;;;;;46.83;23.17;;;;;;;2.80;95.36;103306.88;4970155;28;20030;-68
2022/01/25 03:31:40;;;;;;;45.15;23.58;;;;;;;2.80;95.41;103314.75;4970074;28;20636;-68
2022/01/25 03:34:06;;;;;;;54.58;25.15;;;;;;;2.77;94.84;103293.88;4967212;28;20747;-68
2022/01/25 03:36:32;;;;;;;48.80;22.05;;;;;;;2.81;95.12;103296.25;4951645;28;20035;-68
2022/01/25 03:38:58;;;;;;;49.03;24.88;;;;;;;2.82;94.81;103305.84;4951802;28;20402;-68
2022/01/25 03:41:24;;;;;;;44.88;19.90;;;;;;;2.80;95.18;103312.13;4951700;28;20023;-68
2022/01/25 03:43:55;;;;;;;49.95;23.02;;;;;;;2.81;95.21;103313.84;4951637;28;20038;-68
2022/01/25 03:47:12;;;;;;;45.40;22.73;;;;;;;2.83;95.01;103314.63;4951621;28;20031;-68
2022/01/25 03:51:54;;;;;;;52.17;28.23;;;;;;;2.85;95.69;103313.56;4951762;28;20410;-68
2022/01/25 03:54:19;;;;;;;45.63;22.95;;;;;;;2.86;95.49;103319.72;4951584;28;20027;-68
2022/01/25 03:56:46;;;;;;;45.58;22.98;;;;;;;2.86;95.87;103311.81;4951395;28;20418;-68
2022/01/25 03:59:11;;;;;;;46.08;23.58;;;;;;;2.85;95.22;103323.28;4951522;28;20030;-68
2022/01/25 04:01:37;;;;;;;54.25;28.95;;;;;;;2.83;95.68;103315.47;4951505;28;20035;-68
2022/01/25 04:04:18;;;;;;;47.47;22.95;;;;;;;2.76;95.69;103306.19;4954734;28;20041;-68
2022/01/25 04:06:48;;;;;;;44.70;22.13;;;;;;;2.86;95.61;103319.72;4954873;28;20462;-68
2022/01/25 04:09:13;;;;;;;49.30;23.10;;;;;;;2.82;95.84;103324.28;4954635;28;20558;-68
2022/01/25 04:11:39;;;;;;;48.70;25.38;;;;;;;2.85;95.29;103328.53;4954749;28;20106;-68
2022/01/25 04:14:05;;;;;;;44.95;25.35;;;;;;;2.84;95.40;103332.97;4937518;28;20037;-68
2022/01/25 04:16:41;;;;;;;47.13;23.73;;;;;;;2.83;95.62;103319.91;4954775;28;20035;-68
2022/01/25 04:19:21;;;;;;;45.25;27.65;;;;;;;2.84;95.65;103318.94;4954758;28;20035;-68
2022/01/25 04:27:11;;;;;;;46.72;23.10;;;;;;;2.84;95.49;103316.31;4972901;28;20055;-68
2022/01/25 04:29:37;;;;;;;46.63;21.75;;;;;;;2.84;96.00;103316.31;4972789;28;20043;-68
2022/01/25 04:32:06;;;;;;;50.88;23.45;;;;;;;2.82;95.85;103319.03;4972806;28;20393;-68
2022/01/25 04:56:35;;;;;;;47.85;22.58;;;;;;;2.80;96.38;103310.38;4972544;28;20043;-68
2022/01/25 04:58:51;;;;;;;47.53;23.13;;;;;;;2.80;96.52;103307.75;4964343;28;20133;-68
2022/01/25 05:01:17;;;;;;;42.40;22.02;;;;;;;2.80;96.14;103307.75;4972302;28;20126;-68
2022/01/25 05:06:29;;;;;;;48.80;26.17;;;;;;;2.81;96.54;103303.31;4972659;28;20041;-68
2022/01/25 05:09:03;;;;;;;50.10;23.05;;;;;;;2.82;96.44;103303.22;4972239;28;20031;-68
2022/01/25 05:11:33;;;;;;;45.67;21.63;;;;;;;2.82;96.52;103303.22;4972201;28;20482;-68
2022/01/25 05:24:39;;;;;;;51.10;24.08;;;;;;;2.80;96.61;103301.59;4972320;28;20117;-68
2022/01/25 05:27:05;;;;;;;50.92;24.92;;;;;;;2.80;96.35;103294.56;4971692;28;20059;-68
2022/01/25 05:29:30;;;;;;;53.53;26.73;;;;;;;2.76;95.67;103300.91;4971807;28;20057;-68
2022/01/25 05:31:58;;;;;;;50.55;24.77;;;;;;;2.76;96.19;103308.81;4971851;28;20034;-68
2022/01/25 05:34:24;;;;;;;53.00;26.13;;;;;;;2.75;95.93;103299.25;4971658;28;20038;-68
2022/01/25 05:36:49;;;;;;;53.70;25.67;;;;;;;2.78;96.41;103306.97;4971702;28;20027;-69
2022/01/25 05:39:26;;;;;;;51.22;24.83;;;;;;;2.78;96.28;103300.84;4971665;28;20462;-68
2022/01/25 05:42:12;;;;;;;47.25;25.55;;;;;;;2.80;96.44;103302.47;4971670;28;20050;-68
2022/01/25 05:44:56;;;;;;;57.53;25.73;;;;;;;2.78;95.52;103300.84;4971670;28;20041;-68
2022/01/25 05:47:31;;;;;;;52.97;26.88;;;;;;;2.76;95.55;103293.03;4952816;28;20085;-68
2022/01/25 05:49:58;;;;;;;48.97;24.25;;;;;;;2.79;95.91;103306.03;4952978;28;20039;-68
2022/01/25 05:52:24;;;;;;;52.55;26.38;;;;;;;2.78;95.64;103292.94;4953107;28;20046;-68
2022/01/25 05:54:50;;;;;;;46.80;24.02;;;;;;;2.77;96.19;103291.22;4952847;28;20042;-68
2022/01/25 05:57:15;;;;;;;49.63;25.83;;;;;;;2.79;95.88;103303.38;4952740;28;20398;-68
2022/01/25 05:59:41;;;;;;;53.03;29.13;;;;;;;2.79;95.79;103303.38;4952725;28;20038;-68
2022/01/25 06:02:07;;;;;;;52.70;27.48;;;;;;;2.71;95.51;103283.66;4952830;28;20065;-68
2022/01/25 06:04:32;;;;;;;53.42;26.60;;;;;;;2.79;95.46;103295.47;4952687;28;20031;-68
2022/01/25 06:06:57;;;;;;;50.83;27.75;;;;;;;2.79;95.17;103298.13;4952675;28;20027;-68
2022/01/25 06:09:26;;;;;;;49.40;24.33;;;;;;;2.76;95.27;103286.91;4952446;28;20027;-68
2022/01/25 06:11:52;;;;;;;49.85;27.27;;;;;;;2.80;95.58;103283.16;4952568;28;20034;-68
2022/01/25 06:14:18;;;;;;;56.17;29.83;;;;;;;2.80;95.52;103285.78;4952574;28;20031;-68
2022/01/25 06:16:43;;;;;;;49.38;28.67;;;;;;;2.83;95.57;103285.63;4952616;28;20477;-68
2022/01/25 06:19:09;;;;;;;51.97;26.85;;;;;;;2.84;95.61;103289.97;4952652;28;20027;-68
2022/01/25 06:21:34;;;;;;;47.67;27.20;;;;;;;2.84;95.69;103282.06;4952130;28;20548;-68
2022/01/25 06:23:59;;;;;;;46.50;22.58;;;;;;;2.85;95.88;103297.75;4952387;28;20035;-68
2022/01/25 06:26:25;;;;;;;49.90;24.77;;;;;;;2.85;95.81;103287.22;4951908;28;20197;-68
2022/01/25 06:28:50;;;;;;;50.88;24.10;;;;;;;2.86;95.66;103296.00;4952177;28;20075;-68
2022/01/25 06:31:17;;;;;;;46.35;26.02;;;;;;;2.83;95.44;103294.38;4961173;28;20151;-68
2022/01/25 06:33:43;;;;;;;46.83;23.42;;;;;;;2.83;95.29;103291.75;4952367;28;20024;-68
2022/01/25 06:36:09;;;;;;;46.63;25.20;;;;;;;2.84;95.19;103284.69;4952403;28;20046;-70
2022/01/25 06:38:35;;;;;;;58.78;31.02;;;;;;;2.82;94.38;103281.28;4952256;28;20530;-68
2022/01/25 06:41:01;;;;;;;52.65;24.27;;;;;;;2.84;93.99;103297.88;4952185;28;20122;-68
2022/01/25 06:43:26;;;;;;;58.05;29.65;;;;;;;2.86;94.36;103296.00;4952176;28;20031;-68
2022/01/25 06:45:59;;;;;;;52.40;26.83;;;;;;;2.88;94.12;103298.53;4952074;28;20137;-68
2022/01/25 06:48:24;;;;;;;50.67;25.33;;;;;;;2.89;94.40;103297.63;4952221;28;20030;-68
2022/01/25 06:50:49;;;;;;;55.80;29.60;;;;;;;2.88;94.66;103299.38;4951999;28;20402;-68
2022/01/25 06:53:15;;;;;;;55.92;28.35;;;;;;;2.86;94.37;103293.38;4952011;28;20133;-68
2022/01/25 06:55:40;;;;;;;62.65;29.80;;;;;;;2.84;94.61;103290.81;4951823;28;20167;-68
2022/01/25 06:58:06;;;;;;;50.50;28.10;;;;;;;2.89;94.27;103302.88;4951948;28;20054;-68
2022/01/25 07:00:31;;;;;;;56.25;29.73;;;;;;;2.88;94.33;103299.38;4934607;28;20050;-68
2022/01/25 07:02:57;;;;;;;51.05;27.27;;;;;;;2.88;94.69;103303.81;4952021;28;20659;-68
2022/01/25 07:05:22;;;;;;;49.85;25.08;;;;;;;2.86;94.69;103303.91;4951908;28;20406;-68
2022/01/25 07:07:48;;;;;;;50.58;27.40;;;;;;;2.86;94.59;103314.44;4951922;28;20094;-68
2022/01/25 07:10:13;;;;;;;55.88;27.27;;;;;;;2.86;94.92;103303.91;4934560;28;20054;-68
2022/01/25 07:12:39;;;;;;;51.70;27.58;;;;;;;2.85;93.64;103305.66;4951865;28;20094;-68
2022/01/25 07:15:06;;;;;;;56.55;29.55;;;;;;;2.88;91.05;103312.56;4951860;28;20125;-68
2022/01/25 07:17:31;;;;;;;47.47;25.25;;;;;;;2.91;91.11;103306.25;4951762;28;20050;-69
2022/01/25 07:19:57;;;;;;;51.55;27.25;;;;;;;2.90;90.90;103315.13;4962799;28;20450;-68
2022/01/25 07:22:22;;;;;;;51.65;25.80;;;;;;;2.92;90.40;103311.47;4951669;28;20146;-68
2022/01/25 07:24:47;;;;;;;53.33;26.48;;;;;;;2.93;91.59;103315.78;4951551;28;20034;-68
2022/01/25 07:27:13;;;;;;;55.05;29.60;;;;;;;2.94;90.70;103316.66;4951594;28;20070;-68
2022/01/25 07:29:38;;;;;;;55.72;32.10;;;;;;;2.94;90.18;103311.38;4951664;28;20032;-68
2022/01/25 07:32:04;;;;;;;52.17;29.33;;;;;;;2.95;89.11;103311.28;4951683;28;20066;-68
2022/01/25 07:34:29;;;;;;;56.75;29.48;;;;;;;2.98;89.58;103319.00;4951739;28;20559;-68
2022/01/25 07:36:55;;;;;;;56.38;29.70;;;;;;;3.00;89.10;103317.16;4951925;28;20039;-68
2022/01/25 07:39:21;;;;;;;60.22;29.02;;;;;;;2.99;89.10;103326.00;4955230;28;20027;-69
2022/01/25 07:41:47;;;;;;;55.85;28.40;;;;;;;2.98;89.36;103326.06;4955170;28;20190;-68
2022/01/25 07:44:13;;;;;;;57.30;28.58;;;;;;;2.95;89.56;103321.81;4955265;28;20038;-68
2022/01/25 07:46:39;;;;;;;59.53;32.40;;;;;;;2.94;88.19;103316.66;4955305;28;20439;-68
2022/01/25 07:49:05;;;;;;;57.80;29.77;;;;;;;2.95;88.27;103311.28;4955181;28;20078;-69
2022/01/25 07:51:31;;;;;;;57.17;30.13;;;;;;;3.02;90.05;103317.06;4955160;28;20027;-68
2022/01/25 07:53:59;;;;;;;58.47;27.05;;;;;;;3.03;90.35;103314.34;4955107;28;20122;-72
2022/01/25 07:56:25;;;;;;;60.50;31.75;;;;;;;3.04;89.45;103315.22;4956893;28;20039;-72
2022/01/25 07:58:50;;;;;;;57.50;31.10;;;;;;;3.00;90.13;103309.25;4955114;28;20035;-72
2022/01/25 08:01:16;;;;;;;57.20;28.58;;;;;;;3.06;90.64;103315.94;4955026;28;20055;-72
2022/01/25 08:03:43;;;;;;;66.03;30.65;;;;;;;3.07;89.83;103315.03;4954986;28;20114;-71
2022/01/25 08:06:09;;;;;;;53.58;27.77;;;;;;;3.10;90.16;103319.28;4954479;28;20399;-72
2022/01/25 08:08:35;;;;;;;54.42;28.40;;;;;;;3.10;89.42;103322.75;4954786;28;20101;-72
2022/01/25 08:11:00;;;;;;;56.63;28.65;;;;;;;3.10;90.19;103321.91;4954827;28;20594;-72
2022/01/25 08:13:25;;;;;;;54.78;28.48;;;;;;;3.09;88.77;103323.69;4954661;28;20502;-72
2022/01/25 08:15:51;;;;;;;58.13;32.67;;;;;;;3.10;88.32;103322.75;4949214;28;20429;-72
2022/01/25 08:18:16;;;;;;;62.67;28.17;;;;;;;3.10;88.06;103324.56;4966818;28;20122;-72
2022/01/25 08:20:41;;;;;;;61.15;32.58;;;;;;;3.11;87.06;103327.09;4954498;28;20039;-73
2022/01/25 08:23:07;;;;;;;57.50;33.00;;;;;;;3.14;87.64;103319.00;4954420;28;20035;-71
2022/01/25 08:25:32;;;;;;;62.72;33.47;;;;;;;3.11;86.85;103319.19;4956760;28;20046;-73
2022/01/25 08:27:58;;;;;;;55.20;28.48;;;;;;;3.18;85.78;103330.25;4967584;28;20138;-72
2022/01/25 08:30:23;;;;;;;60.90;29.85;;;;;;;3.20;85.54;103328.38;4972660;28;20034;-73
2022/01/25 08:32:50;;;;;;;61.17;36.25;;;;;;;3.19;85.43;103329.28;4972867;28;20038;-72
2022/01/25 08:35:15;;;;;;;58.05;29.17;;;;;;;3.15;85.22;103328.63;4970259;28;20031;-72
2022/01/25 08:37:41;;;;;;;60.47;31.67;;;;;;;3.16;85.35;103334.75;4956016;28;20493;-71
2022/01/25 08:40:08;;;;;;;63.30;31.58;;;;;;;3.17;85.34;103333.81;4964598;28;20046;-71
2022/01/25 08:42:35;;;;;;;62.20;30.55;;;;;;;3.14;84.73;103331.34;4972578;28;20069;-69
2022/01/25 08:45:01;;;;;;;64.35;30.73;;;;;;;3.15;85.35;103330.41;4971609;28;20394;-71
2022/01/25 08:47:27;;;;;;;66.03;33.47;;;;;;;3.13;84.74;103327.88;4972791;28;20041;-71
2022/01/25 08:49:52;;;;;;;61.83;34.20;;;;;;;3.17;84.76;103336.44;4971360;28;20477;-71
2022/01/25 08:52:17;;;;;;;59.10;32.05;;;;;;;3.15;84.56;103330.41;4955025;28;20042;-71
2022/01/25 08:54:43;;;;;;;63.97;32.97;;;;;;;3.20;84.32;103334.50;4955009;28;20161;-71
2022/01/25 08:57:09;;;;;;;59.17;29.92;;;;;;;3.23;84.82;103338.75;4972446;28;20054;-71
2022/01/25 08:59:35;;;;;;;60.97;28.63;;;;;;;3.22;85.28;103332.63;4972473;28;20117;-71
2022/01/25 09:02:01;;;;;;;57.08;32.95;;;;;;;3.26;85.40;103333.28;4954911;28;20034;-71
2022/01/25 09:04:27;;;;;;;65.65;31.70;;;;;;;3.28;84.86;103344.63;4972315;28;20072;-70
2022/01/25 09:06:53;;;;;;;61.97;31.80;;;;;;;3.25;83.81;103337.72;4972300;28;20054;-71
2022/01/25 09:09:18;;;;;;;67.00;32.85;;;;;;;3.25;83.89;103337.72;4954762;28;20070;-71
2022/01/25 09:11:44;;;;;;;59.58;29.95;;;;;;;3.28;84.46;103345.44;4954911;28;20034;-71
2022/01/25 09:14:09;;;;;;;61.22;30.92;;;;;;;3.27;83.83;103342.88;4972211;28;20037;-70
2022/01/25 09:16:36;;;;;;;69.15;35.63;;;;;;;3.32;84.90;103353.19;4972154;28;20039;-71
2022/01/25 09:19:03;;;;;;;65.30;30.60;;;;;;;3.34;84.26;103353.97;4972080;28;20022;-71
2022/01/25 09:21:28;;;;;;;60.33;32.72;;;;;;;3.32;83.35;103346.13;4953399;28;20046;-71
2022/01/25 09:23:54;;;;;;;56.70;26.80;;;;;;;3.34;84.39;103338.97;4936104;28;20031;-71
2022/01/25 09:26:21;;;;;;;58.90;31.85;;;;;;;3.40;83.69;103343.88;4967562;28;20065;-71
2022/01/25 09:28:47;;;;;;;53.72;27.25;;;;;;;3.36;83.82;103334.47;4971774;28;20027;-71
2022/01/25 09:31:12;;;;;;;64.25;31.58;;;;;;;3.42;83.00;103351.72;4971838;28;20039;-70
2022/01/25 09:33:38;;;;;;;58.20;30.05;;;;;;;3.46;83.00;103354.09;4971875;28;20062;-71
2022/01/25 09:36:04;;;;;;;58.15;31.13;;;;;;;3.49;82.86;103359.22;4971740;28;20031;-71
2022/01/25 09:38:29;;;;;;;57.20;28.50;;;;;;;3.49;82.63;103367.13;4971622;28;20158;-71
2022/01/25 09:40:55;;;;;;;56.13;30.90;;;;;;;3.51;83.47;103353.81;4971676;28;20027;-71
2022/01/25 09:43:21;;;;;;;53.72;28.45;;;;;;;3.55;83.21;103359.78;4971611;28;20036;-71
2022/01/25 09:45:47;;;;;;;57.40;29.40;;;;;;;3.59;83.39;103362.16;4971501;28;20066;-71
2022/01/25 09:48:14;;;;;;;58.03;30.95;;;;;;;3.61;82.45;103356.78;4971452;28;20043;-71
2022/01/25 09:50:39;;;;;;;59.50;29.63;;;;;;;3.61;82.63;103359.44;4971268;28;20039;-71
2022/01/25 09:53:06;;;;;;;60.33;33.33;;;;;;;3.62;83.29;103367.25;4971425;28;20029;-71
2022/01/25 09:55:34;;;;;;;57.90;31.15;;;;;;;3.65;83.20;103363.59;4969634;28;20081;-72
2022/01/25 09:58:02;;;;;;;56.70;30.05;;;;;;;3.67;nan;103365.22;4955429;28;20062;-71
2022/01/25 10:00:29;;;;;;;59.25;28.30;;;;;;;3.70;82.93;103369.47;4971094;28;20034;-71
2022/01/25 10:05:35;;;;;;;58.30;30.85;;;;;;;3.70;81.88;103361.53;4971353;28;20031;-71
2022/01/25 10:08:09;;;;;;;55.15;30.77;;;;;;;3.75;81.86;103372.69;4952356;28;20035;-71
2022/01/25 10:10:38;;;;;;;60.50;33.42;;;;;;;3.72;82.09;103372.84;4952258;28;20585;-71
2022/01/25 10:13:15;;;;;;;60.83;31.50;;;;;;;3.73;82.76;103378.03;4952506;28;20067;-70
2022/01/25 10:15:42;;;;;;;62.97;30.27;;;;;;;3.78;82.76;103377.78;4952435;28;20038;-71
2022/01/25 10:18:08;;;;;;;53.20;28.52;;;;;;;3.80;82.50;103373.28;4952490;28;20034;-70
2022/01/25 10:20:45;;;;;;;52.25;26.27;;;;;;;3.78;83.15;103366.38;4952371;28;20390;-71
2022/01/25 10:23:31;;;;;;;66.05;30.83;;;;;;;3.82;82.43;103368.72;4952427;28;20483;-71
2022/01/25 10:26:01;;;;;;;57.33;30.33;;;;;;;3.86;82.53;103374.69;4935135;28;20035;-70
2022/01/25 10:28:31;;;;;;;54.67;27.92;;;;;;;3.87;82.24;103379.88;4952192;28;20390;-71
2022/01/25 10:31:01;;;;;;;58.40;31.20;;;;;;;3.91;81.59;103375.28;4966214;28;20050;-71
2022/01/25 10:33:37;;;;;;;52.63;29.50;;;;;;;3.92;81.05;103374.31;4970647;28;20026;-71
2022/01/25 10:36:15;;;;;;;57.65;29.63;;;;;;;3.96;81.31;103365.28;4970669;28;20035;-71
2022/01/25 10:38:43;;;;;;;62.25;29.02;;;;;;;3.99;81.30;103366.91;4952008;28;20020;-71
2022/01/25 10:41:15;;;;;;;57.45;28.73;;;;;;;4.05;81.37;103364.72;4970705;28;20030;-71
2022/01/25 10:43:43;;;;;;;56.65;30.73;;;;;;;4.09;81.57;103368.91;4970518;28;20557;-71
2022/01/25 10:46:29;;;;;;;53.35;26.88;;;;;;;4.08;80.20;103367.19;4970690;28;20026;-71
2022/01/25 10:49:00;;;;;;;51.05;26.42;;;;;;;4.09;81.02;103362.78;4970250;28;20448;-71
2022/01/25 10:51:35;;;;;;;58.30;27.90;;;;;;;4.02;79.80;103357.00;4958116;28;20031;-71
2022/01/25 10:54:10;;;;;;;55.65;29.17;;;;;;;4.07;79.65;103362.84;4952509;28;20086;-71
2022/01/25 10:56:35;;;;;;;63.90;32.53;;;;;;;4.10;80.29;103362.66;4970360;28;20095;-71
2022/01/25 10:59:03;;;;;;;57.42;29.48;;;;;;;4.13;80.60;103362.47;4970345;28;20034;-71
2022/01/25 11:01:49;;;;;;;60.67;30.77;;;;;;;4.10;79.91;103359.19;4970393;28;20026;-71
2022/01/25 11:04:16;;;;;;;56.83;27.98;;;;;;;4.14;79.06;103360.72;4969642;28;20038;-71
2022/01/25 11:06:43;;;;;;;57.53;27.48;;;;;;;4.15;79.12;103362.38;4970353;28;20041;-71
2022/01/25 11:09:12;;;;;;;55.85;28.38;;;;;;;4.13;79.43;103361.63;4970249;28;20031;-71
2022/01/25 11:11:45;;;;;;;56.00;29.50;;;;;;;4.14;79.24;103363.34;4970443;28;20390;-71
2022/01/25 11:17:15;;;;;;;49.85;24.25;;;;;;;4.22;79.08;103374.28;4895457;29;20518;-67
2022/01/25 11:19:41;;;;;;;53.90;30.17;;;;;;;4.22;78.48;103368.13;4895556;29;20029;-67
2022/01/25 11:22:09;;;;;;;58.58;30.50;;;;;;;4.16;78.80;103372.84;4914257;28;20139;-66
2022/01/25 11:24:35;;;;;;;53.33;25.20;;;;;;;4.11;78.32;103369.66;4955672;28;20035;-67
2022/01/25 11:27:03;;;;;;;50.65;26.15;;;;;;;4.01;78.73;103362.34;4955665;28;20059;-67
2022/01/25 11:29:28;;;;;;;54.33;27.08;;;;;;;4.05;79.45;103363.88;4955522;28;20082;-67
2022/01/25 11:32:08;;;;;;;53.72;26.05;;;;;;;4.07;79.04;103368.13;4938322;28;20035;-67
2022/01/25 11:34:35;;;;;;;59.58;29.90;;;;;;;4.05;78.34;103364.72;4955586;28;20027;-67
2022/01/25 11:37:04;;;;;;;55.92;26.23;;;;;;;4.02;78.64;103372.00;4955490;28;20042;-67
2022/01/25 11:39:31;;;;;;;57.58;30.30;;;;;;;3.98;78.84;103370.47;4955445;28;20035;-67
2022/01/25 11:42:14;;;;;;;58.55;28.13;;;;;;;3.97;79.91;103376.69;4955385;28;20027;-66
2022/01/25 11:44:47;;;;;;;51.38;26.58;;;;;;;3.92;80.08;103375.16;4955066;28;20035;-67
2022/01/25 11:47:16;;;;;;;58.05;28.33;;;;;;;3.88;79.34;103368.38;4955102;28;21004;-67
2022/01/25 11:50:08;;;;;;;54.83;27.75;;;;;;;3.96;80.17;103375.84;4956316;28;20038;-66
2022/01/25 11:52:34;;;;;;;58.55;31.42;;;;;;;3.93;79.11;103368.97;4974017;28;20438;-67
2022/01/25 11:55:24;;;;;;;55.63;27.83;;;;;;;3.97;79.07;103379.34;4973373;28;20129;-67
2022/01/25 11:57:52;;;;;;;53.38;28.73;;;;;;;3.96;79.82;103370.56;4973240;28;20027;-67
2022/01/25 12:00:21;;;;;;;56.38;27.77;;;;;;;3.98;79.29;103373.09;4973185;28;20035;-66
2022/01/25 12:02:51;;;;;;;67.28;31.58;;;;;;;3.97;79.33;103374.06;4973212;28;20082;-67
2022/01/25 12:05:25;;;;;;;57.28;28.48;;;;;;;4.01;79.20;103368.50;4973121;28;20048;-71
2022/01/25 12:08:09;;;;;;;54.97;28.30;;;;;;;3.94;79.42;103352.16;4973120;28;20073;-70
2022/01/25 12:10:39;;;;;;;58.35;30.13;;;;;;;3.99;78.57;103359.81;4973016;28;20035;-71
2022/01/25 12:13:25;;;;;;;57.30;32.17;;;;;;;3.92;78.86;103351.41;4973179;28;20042;-71
2022/01/25 12:16:20;;;;;;;54.25;25.98;;;;;;;3.91;79.27;103348.88;4955586;28;20026;-70
2022/01/25 12:18:52;;;;;;;54.78;27.27;;;;;;;3.90;79.37;103344.50;4943105;28;20481;-71
2022/01/25 12:21:51;;;;;;;59.35;27.63;;;;;;;3.94;80.07;103343.41;4954362;28;20032;-71
2022/01/25 12:24:22;;;;;;;52.08;30.08;;;;;;;3.96;79.57;103346.81;4954187;28;20074;-71
2022/01/25 12:27:18;;;;;;;56.83;28.48;;;;;;;3.94;79.86;103336.31;4953981;28;20059;-71
2022/01/25 12:29:58;;;;;;;56.13;25.52;;;;;;;3.88;79.50;103322.66;4963507;28;20161;-71
2022/01/25 12:32:28;;;;;;;63.25;30.50;;;;;;;3.78;79.98;103310.94;4973254;28;20469;-71
2022/01/25 12:34:56;;;;;;;50.83;24.60;;;;;;;3.96;80.60;103333.59;4973038;28;20054;-71
2022/01/25 12:37:44;;;;;;;55.42;26.15;;;;;;;4.02;81.03;103333.22;4972861;28;20041;-71
2022/01/25 12:40:24;;;;;;;60.40;30.20;;;;;;;4.06;80.89;103329.47;4944328;28;20379;-71
2022/01/25 12:42:51;;;;;;;54.20;24.33;;;;;;;4.04;79.29;103319.94;4972747;28;20034;-71
2022/01/25 12:45:20;;;;;;;57.88;28.60;;;;;;;4.06;79.12;103329.47;4972703;28;20057;-71
2022/01/25 12:48:17;;;;;;;57.05;27.63;;;;;;;4.09;79.51;103329.28;4972584;28;20113;-71
2022/01/25 12:50:45;;;;;;;53.60;25.92;;;;;;;4.11;79.34;103321.25;4957027;28;20448;-71
2022/01/25 12:53:15;;;;;;;54.22;27.63;;;;;;;4.15;79.45;103314.84;4972624;28;20084;-71
2022/01/25 12:55:44;;;;;;;53.78;25.75;;;;;;;4.19;80.81;103308.41;4972814;28;20018;-71
2022/01/25 12:58:10;;;;;;;55.85;26.02;;;;;;;4.20;78.73;103311.94;4972590;28;20401;-71
2022/01/25 13:00:43;;;;;;;52.35;28.98;;;;;;;4.14;78.97;103308.72;4972395;28;20429;-71
2022/01/25 13:03:28;;;;;;;58.22;28.70;;;;;;;4.17;78.86;103312.97;4972576;28;20029;-71
2022/01/25 13:05:59;;;;;;;55.88;27.13;;;;;;;4.11;78.40;103305.41;4972286;28;20053;-71
2022/01/25 13:08:28;;;;;;;58.20;27.70;;;;;;;4.08;78.49;103309.09;4972196;28;20033;-71
2022/01/25 13:11:19;;;;;;;52.67;25.33;;;;;;;4.09;79.72;103302.03;4972135;28;20065;-71
2022/01/25 13:16:56;;;;;;;59.67;30.05;;;;;;;4.09;79.38;103296.75;4972017;28;20047;-74
2022/01/25 13:19:49;;;;;;;55.08;26.25;;;;;;;4.10;78.62;103303.72;4919531;28;20035;-72
2022/01/25 13:22:21;;;;;;;58.75;29.00;;;;;;;4.08;79.03;103301.16;4949690;28;20081;-72
2022/01/25 13:24:59;;;;;;;56.05;26.88;;;;;;;4.05;78.75;103289.94;4949756;28;20027;-72
2022/01/25 13:27:31;;;;;;;58.30;31.73;;;;;;;4.06;79.10;103295.16;4949551;28;20058;-71